sensor_id;sensor_type;location;lat;lon;timestamp;P1;durP1;ratioP1;P2;durP2;ratioP2
14619;SDS011;32125;48.518;9.050;2023-02-04T00:01:51;0.80;;;0.80;;
14619;SDS011;32125;48.518;9.050;2023-02-04T00:04:17;1.00;;;1.00;;
14619;SDS011;32125;48.518;9.050;2023-02-04T00:06:43;1.30;;;1.10;;
14619;SDS011;32125;48.518;9.050;2023-02-04T00:09:08;1.27;;;1.17;;
14619;SDS011;32125;48.518;9.050;2023-02-04T00:11:34;1.10;;;1.00;;
14619;SDS011;32125;48.518;9.050;2023-02-04T00:14:02;1.30;;;1.20;;
14619;SDS011;32125;48.518;9.050;2023-02-04T00:16:28;0.87;;;0.87;;
14619;SDS011;32125;48.518;9.050;2023-02-04T00:18:54;1.13;;;1.00;;
14619;SDS011;32125;48.518;9.050;2023-02-04T00:21:20;0.93;;;0.90;;
14619;SDS011;32125;48.518;9.050;2023-02-04T00:23:46;1.23;;;0.93;;
14619;SDS011;32125;48.518;9.050;2023-02-04T00:26:12;1.30;;;1.20;;
14619;SDS011;32125;48.518;9.050;2023-02-04T00:28:38;1.00;;;1.00;;
14619;SDS011;32125;48.518;9.050;2023-02-04T00:31:04;1.93;;;1.37;;
14619;SDS011;32125;48.518;9.050;2023-02-04T00:33:30;1.20;;;1.20;;
14619;SDS011;32125;48.518;9.050;2023-02-04T00:35:57;1.33;;;1.23;;
14619;SDS011;32125;48.518;9.050;2023-02-04T00:38:23;2.00;;;1.30;;
14619;SDS011;32125;48.518;9.050;2023-02-04T00:40:49;1.30;;;1.20;;
14619;SDS011;32125;48.518;9.050;2023-02-04T00:43:17;1.23;;;1.13;;
14619;SDS011;32125;48.518;9.050;2023-02-04T00:45:43;1.30;;;1.20;;
14619;SDS011;32125;48.518;9.050;2023-02-04T00:48:11;1.37;;;1.27;;
14619;SDS011;32125;48.518;9.050;2023-02-04T00:50:40;1.80;;;1.40;;
14619;SDS011;32125;48.518;9.050;2023-02-04T00:53:06;1.77;;;1.50;;
14619;SDS011;32125;48.518;9.050;2023-02-04T00:55:32;1.93;;;1.60;;
14619;SDS011;32125;48.518;9.050;2023-02-04T00:57:57;1.67;;;1.57;;
14619;SDS011;32125;48.518;9.050;2023-02-04T01:00:24;2.53;;;1.63;;
14619;SDS011;32125;48.518;9.050;2023-02-04T01:02:50;1.63;;;1.53;;
14619;SDS011;32125;48.518;9.050;2023-02-04T01:05:16;2.13;;;1.60;;
14619;SDS011;32125;48.518;9.050;2023-02-04T01:07:42;2.00;;;1.90;;
14619;SDS011;32125;48.518;9.050;2023-02-04T01:10:10;1.97;;;1.77;;
14619;SDS011;32125;48.518;9.050;2023-02-04T01:12:36;3.40;;;2.00;;
14619;SDS011;32125;48.518;9.050;2023-02-04T01:15:02;2.60;;;2.10;;
14619;SDS011;32125;48.518;9.050;2023-02-04T01:17:31;2.13;;;1.93;;
14619;SDS011;32125;48.518;9.050;2023-02-04T01:19:56;2.07;;;1.40;;
14619;SDS011;32125;48.518;9.050;2023-02-04T01:22:25;1.50;;;1.40;;
14619;SDS011;32125;48.518;9.050;2023-02-04T01:24:51;1.50;;;1.40;;
14619;SDS011;32125;48.518;9.050;2023-02-04T01:27:17;2.47;;;1.40;;
14619;SDS011;32125;48.518;9.050;2023-02-04T01:29:43;1.30;;;1.30;;
14619;SDS011;32125;48.518;9.050;2023-02-04T01:32:09;1.60;;;1.40;;
14619;SDS011;32125;48.518;9.050;2023-02-04T01:34:35;1.40;;;1.30;;
14619;SDS011;32125;48.518;9.050;2023-02-04T01:37:01;1.63;;;1.53;;
14619;SDS011;32125;48.518;9.050;2023-02-04T01:39:27;1.53;;;1.43;;
14619;SDS011;32125;48.518;9.050;2023-02-04T01:41:53;1.67;;;1.20;;
14619;SDS011;32125;48.518;9.050;2023-02-04T01:44:19;1.47;;;1.37;;
14619;SDS011;32125;48.518;9.050;2023-02-04T01:46:45;3.27;;;1.63;;
14619;SDS011;32125;48.518;9.050;2023-02-04T01:49:11;1.53;;;1.40;;
14619;SDS011;32125;48.518;9.050;2023-02-04T01:51:37;1.73;;;1.63;;
14619;SDS011;32125;48.518;9.050;2023-02-04T01:54:04;1.93;;;1.73;;
14619;SDS011;32125;48.518;9.050;2023-02-04T01:56:33;1.80;;;1.70;;
14619;SDS011;32125;48.518;9.050;2023-02-04T01:58:59;3.20;;;2.27;;
14619;SDS011;32125;48.518;9.050;2023-02-04T02:04:17;2.17;;;1.97;;
14619;SDS011;32125;48.518;9.050;2023-02-04T02:06:57;3.17;;;2.27;;
14619;SDS011;32125;48.518;9.050;2023-02-04T02:09:26;2.40;;;2.10;;
14619;SDS011;32125;48.518;9.050;2023-02-04T02:11:52;3.17;;;2.20;;
14619;SDS011;32125;48.518;9.050;2023-02-04T02:14:18;2.60;;;2.40;;
14619;SDS011;32125;48.518;9.050;2023-02-04T02:16:46;2.50;;;2.30;;
14619;SDS011;32125;48.518;9.050;2023-02-04T02:19:14;2.50;;;2.30;;
14619;SDS011;32125;48.518;9.050;2023-02-04T02:24:52;4.17;;;3.10;;
14619;SDS011;32125;48.518;9.050;2023-02-04T02:27:18;3.37;;;2.30;;
14619;SDS011;32125;48.518;9.050;2023-02-04T02:29:44;4.73;;;2.70;;
14619;SDS011;32125;48.518;9.050;2023-02-04T02:32:10;2.90;;;2.70;;
14619;SDS011;32125;48.518;9.050;2023-02-04T02:34:37;3.60;;;3.20;;
14619;SDS011;32125;48.518;9.050;2023-02-04T02:37:06;2.90;;;2.70;;
14619;SDS011;32125;48.518;9.050;2023-02-04T02:39:37;2.90;;;2.57;;
14619;SDS011;32125;48.518;9.050;2023-02-04T02:42:08;3.00;;;2.70;;
14619;SDS011;32125;48.518;9.050;2023-02-04T02:44:35;3.87;;;3.00;;
14619;SDS011;32125;48.518;9.050;2023-02-04T02:47:00;3.43;;;3.13;;
14619;SDS011;32125;48.518;9.050;2023-02-04T02:49:27;4.97;;;3.23;;
14619;SDS011;32125;48.518;9.050;2023-02-04T02:51:55;3.93;;;3.50;;
14619;SDS011;32125;48.518;9.050;2023-02-04T02:54:25;4.67;;;3.53;;
14619;SDS011;32125;48.518;9.050;2023-02-04T02:56:53;4.20;;;3.70;;
14619;SDS011;32125;48.518;9.050;2023-02-04T02:59:20;5.00;;;3.50;;
14619;SDS011;32125;48.518;9.050;2023-02-04T03:01:47;3.80;;;3.50;;
14619;SDS011;32125;48.518;9.050;2023-02-04T03:04:15;5.17;;;3.50;;
14619;SDS011;32125;48.518;9.050;2023-02-04T03:06:46;3.63;;;3.30;;
14619;SDS011;32125;48.518;9.050;2023-02-04T03:09:12;5.50;;;3.40;;
14619;SDS011;32125;48.518;9.050;2023-02-04T03:11:41;4.23;;;3.57;;
14619;SDS011;32125;48.518;9.050;2023-02-04T03:14:07;5.10;;;3.97;;
14619;SDS011;32125;48.518;9.050;2023-02-04T03:16:35;4.47;;;4.07;;
14619;SDS011;32125;48.518;9.050;2023-02-04T03:19:02;4.10;;;3.80;;
14619;SDS011;32125;48.518;9.050;2023-02-04T03:21:30;4.93;;;4.43;;
14619;SDS011;32125;48.518;9.050;2023-02-04T03:23:56;6.27;;;4.50;;
14619;SDS011;32125;48.518;9.050;2023-02-04T03:26:24;6.63;;;4.90;;
14619;SDS011;32125;48.518;9.050;2023-02-04T03:28:52;5.23;;;4.73;;
14619;SDS011;32125;48.518;9.050;2023-02-04T03:31:18;5.20;;;4.60;;
14619;SDS011;32125;48.518;9.050;2023-02-04T03:33:44;5.33;;;4.40;;
14619;SDS011;32125;48.518;9.050;2023-02-04T03:36:10;5.17;;;4.30;;
14619;SDS011;32125;48.518;9.050;2023-02-04T03:38:36;7.33;;;4.60;;
14619;SDS011;32125;48.518;9.050;2023-02-04T03:41:03;5.67;;;4.43;;
14619;SDS011;32125;48.518;9.050;2023-02-04T03:43:31;5.47;;;4.30;;
14619;SDS011;32125;48.518;9.050;2023-02-04T03:45:57;6.13;;;4.60;;
14619;SDS011;32125;48.518;9.050;2023-02-04T03:48:25;5.97;;;4.33;;
14619;SDS011;32125;48.518;9.050;2023-02-04T03:50:51;5.07;;;4.50;;
14619;SDS011;32125;48.518;9.050;2023-02-04T03:53:17;4.70;;;4.20;;
14619;SDS011;32125;48.518;9.050;2023-02-04T03:55:44;4.17;;;3.77;;
14619;SDS011;32125;48.518;9.050;2023-02-04T03:58:10;5.47;;;4.63;;
14619;SDS011;32125;48.518;9.050;2023-02-04T04:00:36;5.03;;;4.33;;
14619;SDS011;32125;48.518;9.050;2023-02-04T04:03:02;3.63;;;3.33;;
14619;SDS011;32125;48.518;9.050;2023-02-04T04:05:28;5.20;;;4.50;;
14619;SDS011;32125;48.518;9.050;2023-02-04T04:07:54;4.20;;;3.77;;
14619;SDS011;32125;48.518;9.050;2023-02-04T04:10:23;4.63;;;3.63;;
14619;SDS011;32125;48.518;9.050;2023-02-04T04:12:49;4.87;;;4.13;;
14619;SDS011;32125;48.518;9.050;2023-02-04T04:15:17;5.00;;;4.20;;
14619;SDS011;32125;48.518;9.050;2023-02-04T04:17:43;4.40;;;3.83;;
14619;SDS011;32125;48.518;9.050;2023-02-04T04:20:09;4.20;;;3.57;;
14619;SDS011;32125;48.518;9.050;2023-02-04T04:22:35;4.93;;;3.83;;
14619;SDS011;32125;48.518;9.050;2023-02-04T04:25:01;4.23;;;3.20;;
14619;SDS011;32125;48.518;9.050;2023-02-04T04:27:27;3.80;;;3.30;;
14619;SDS011;32125;48.518;9.050;2023-02-04T04:29:56;5.17;;;3.60;;
14619;SDS011;32125;48.518;9.050;2023-02-04T04:32:21;4.47;;;3.67;;
14619;SDS011;32125;48.518;9.050;2023-02-04T04:34:47;2.73;;;2.40;;
14619;SDS011;32125;48.518;9.050;2023-02-04T04:37:16;3.00;;;2.50;;
14619;SDS011;32125;48.518;9.050;2023-02-04T04:39:42;3.07;;;2.33;;
14619;SDS011;32125;48.518;9.050;2023-02-04T04:42:08;2.57;;;2.30;;
14619;SDS011;32125;48.518;9.050;2023-02-04T04:44:36;4.47;;;2.87;;
14619;SDS011;32125;48.518;9.050;2023-02-04T04:47:02;4.80;;;3.53;;
14619;SDS011;32125;48.518;9.050;2023-02-04T04:49:28;7.10;;;4.20;;
14619;SDS011;32125;48.518;9.050;2023-02-04T04:51:53;5.37;;;3.17;;
14619;SDS011;32125;48.518;9.050;2023-02-04T04:54:19;3.87;;;3.20;;
14619;SDS011;32125;48.518;9.050;2023-02-04T04:56:45;4.20;;;2.97;;
14619;SDS011;32125;48.518;9.050;2023-02-04T04:59:11;3.83;;;2.20;;
14619;SDS011;32125;48.518;9.050;2023-02-04T05:01:37;3.23;;;2.23;;
14619;SDS011;32125;48.518;9.050;2023-02-04T05:04:05;3.73;;;2.47;;
14619;SDS011;32125;48.518;9.050;2023-02-04T05:06:31;3.43;;;2.23;;
14619;SDS011;32125;48.518;9.050;2023-02-04T05:08:57;4.17;;;2.03;;
14619;SDS011;32125;48.518;9.050;2023-02-04T05:11:25;4.03;;;2.07;;
14619;SDS011;32125;48.518;9.050;2023-02-04T05:13:53;3.57;;;2.40;;
14619;SDS011;32125;48.518;9.050;2023-02-04T05:16:19;3.43;;;2.10;;
14619;SDS011;32125;48.518;9.050;2023-02-04T05:18:47;4.10;;;2.13;;
14619;SDS011;32125;48.518;9.050;2023-02-04T05:21:15;4.37;;;2.50;;
14619;SDS011;32125;48.518;9.050;2023-02-04T05:23:41;4.77;;;2.40;;
14619;SDS011;32125;48.518;9.050;2023-02-04T05:26:08;3.30;;;1.97;;
14619;SDS011;32125;48.518;9.050;2023-02-04T05:28:34;3.67;;;2.10;;
14619;SDS011;32125;48.518;9.050;2023-02-04T05:31:00;4.53;;;2.20;;
14619;SDS011;32125;48.518;9.050;2023-02-04T05:33:29;3.03;;;1.93;;
14619;SDS011;32125;48.518;9.050;2023-02-04T05:35:56;3.60;;;2.10;;
14619;SDS011;32125;48.518;9.050;2023-02-04T05:38:22;3.40;;;2.10;;
14619;SDS011;32125;48.518;9.050;2023-02-04T05:40:48;4.10;;;1.97;;
14619;SDS011;32125;48.518;9.050;2023-02-04T05:43:14;2.43;;;1.80;;
14619;SDS011;32125;48.518;9.050;2023-02-04T05:45:39;6.43;;;2.00;;
14619;SDS011;32125;48.518;9.050;2023-02-04T05:48:05;3.67;;;2.17;;
14619;SDS011;32125;48.518;9.050;2023-02-04T05:50:34;6.37;;;2.10;;
14619;SDS011;32125;48.518;9.050;2023-02-04T05:53:02;3.10;;;2.10;;
14619;SDS011;32125;48.518;9.050;2023-02-04T05:55:28;3.40;;;2.30;;
14619;SDS011;32125;48.518;9.050;2023-02-04T05:57:56;2.43;;;2.00;;
14619;SDS011;32125;48.518;9.050;2023-02-04T06:00:22;3.97;;;2.00;;
14619;SDS011;32125;48.518;9.050;2023-02-04T06:02:48;2.33;;;1.80;;
14619;SDS011;32125;48.518;9.050;2023-02-04T06:05:14;2.63;;;1.93;;
14619;SDS011;32125;48.518;9.050;2023-02-04T06:07:39;2.10;;;1.90;;
14619;SDS011;32125;48.518;9.050;2023-02-04T06:10:05;3.43;;;1.90;;
14619;SDS011;32125;48.518;9.050;2023-02-04T06:12:31;4.47;;;2.10;;
14619;SDS011;32125;48.518;9.050;2023-02-04T06:14:57;2.17;;;1.90;;
14619;SDS011;32125;48.518;9.050;2023-02-04T06:17:23;4.37;;;2.00;;
14619;SDS011;32125;48.518;9.050;2023-02-04T06:19:49;3.90;;;2.13;;
14619;SDS011;32125;48.518;9.050;2023-02-04T06:22:17;2.90;;;2.17;;
14619;SDS011;32125;48.518;9.050;2023-02-04T06:24:43;5.27;;;2.27;;
14619;SDS011;32125;48.518;9.050;2023-02-04T06:27:09;2.10;;;1.90;;
14619;SDS011;32125;48.518;9.050;2023-02-04T06:29:39;3.83;;;2.03;;
14619;SDS011;32125;48.518;9.050;2023-02-04T06:32:08;4.33;;;2.00;;
14619;SDS011;32125;48.518;9.050;2023-02-04T06:34:36;4.70;;;2.37;;
14619;SDS011;32125;48.518;9.050;2023-02-04T06:37:02;4.30;;;2.40;;
14619;SDS011;32125;48.518;9.050;2023-02-04T06:39:28;4.07;;;2.17;;
14619;SDS011;32125;48.518;9.050;2023-02-04T06:41:53;4.47;;;2.40;;
14619;SDS011;32125;48.518;9.050;2023-02-04T06:44:20;3.13;;;2.47;;
14619;SDS011;32125;48.518;9.050;2023-02-04T06:46:46;5.23;;;3.13;;
14619;SDS011;32125;48.518;9.050;2023-02-04T06:49:14;4.23;;;2.80;;
14619;SDS011;32125;48.518;9.050;2023-02-04T06:51:40;7.30;;;2.60;;
14619;SDS011;32125;48.518;9.050;2023-02-04T06:54:08;4.33;;;2.93;;
14619;SDS011;32125;48.518;9.050;2023-02-04T06:56:35;3.27;;;2.50;;
14619;SDS011;32125;48.518;9.050;2023-02-04T06:59:01;5.00;;;3.03;;
14619;SDS011;32125;48.518;9.050;2023-02-04T07:01:27;12.70;;;3.27;;
14619;SDS011;32125;48.518;9.050;2023-02-04T07:03:53;4.47;;;2.93;;
14619;SDS011;32125;48.518;9.050;2023-02-04T07:06:19;5.07;;;2.40;;
14619;SDS011;32125;48.518;9.050;2023-02-04T07:08:45;8.23;;;2.70;;
14619;SDS011;32125;48.518;9.050;2023-02-04T07:11:11;5.13;;;2.47;;
14619;SDS011;32125;48.518;9.050;2023-02-04T07:13:37;5.67;;;2.90;;
14619;SDS011;32125;48.518;9.050;2023-02-04T07:16:04;5.10;;;2.70;;
14619;SDS011;32125;48.518;9.050;2023-02-04T07:18:31;5.47;;;2.47;;
14619;SDS011;32125;48.518;9.050;2023-02-04T07:20:57;6.60;;;3.17;;
14619;SDS011;32125;48.518;9.050;2023-02-04T07:23:23;5.57;;;2.87;;
14619;SDS011;32125;48.518;9.050;2023-02-04T07:25:49;8.87;;;3.20;;
14619;SDS011;32125;48.518;9.050;2023-02-04T07:28:17;4.13;;;2.80;;
14619;SDS011;32125;48.518;9.050;2023-02-04T07:30:44;6.87;;;3.30;;
14619;SDS011;32125;48.518;9.050;2023-02-04T07:33:10;8.27;;;4.07;;
14619;SDS011;32125;48.518;9.050;2023-02-04T07:35:36;6.47;;;4.00;;
14619;SDS011;32125;48.518;9.050;2023-02-04T07:38:02;6.03;;;3.33;;
14619;SDS011;32125;48.518;9.050;2023-02-04T07:40:28;7.37;;;3.50;;
14619;SDS011;32125;48.518;9.050;2023-02-04T07:42:54;7.30;;;4.03;;
14619;SDS011;32125;48.518;9.050;2023-02-04T07:45:20;7.97;;;4.10;;
14619;SDS011;32125;48.518;9.050;2023-02-04T07:47:48;7.37;;;4.67;;
14619;SDS011;32125;48.518;9.050;2023-02-04T07:50:14;7.40;;;4.57;;
14619;SDS011;32125;48.518;9.050;2023-02-04T07:52:40;7.57;;;4.40;;
14619;SDS011;32125;48.518;9.050;2023-02-04T07:55:06;7.17;;;4.53;;
14619;SDS011;32125;48.518;9.050;2023-02-04T07:57:32;12.93;;;5.77;;
14619;SDS011;32125;48.518;9.050;2023-02-04T08:00:01;8.13;;;4.53;;
14619;SDS011;32125;48.518;9.050;2023-02-04T08:02:27;10.73;;;4.70;;
14619;SDS011;32125;48.518;9.050;2023-02-04T08:04:53;11.70;;;5.00;;
14619;SDS011;32125;48.518;9.050;2023-02-04T08:07:20;8.77;;;4.67;;
14619;SDS011;32125;48.518;9.050;2023-02-04T08:09:46;7.57;;;5.37;;
14619;SDS011;32125;48.518;9.050;2023-02-04T08:12:12;9.27;;;4.87;;
14619;SDS011;32125;48.518;9.050;2023-02-04T08:14:40;10.00;;;5.00;;
14619;SDS011;32125;48.518;9.050;2023-02-04T08:17:06;8.47;;;5.17;;
14619;SDS011;32125;48.518;9.050;2023-02-04T08:19:34;9.27;;;5.07;;
14619;SDS011;32125;48.518;9.050;2023-02-04T08:22:00;6.93;;;4.60;;
14619;SDS011;32125;48.518;9.050;2023-02-04T08:24:26;6.47;;;4.40;;
14619;SDS011;32125;48.518;9.050;2023-02-04T08:26:54;8.73;;;4.90;;
14619;SDS011;32125;48.518;9.050;2023-02-04T08:29:22;7.27;;;4.57;;
14619;SDS011;32125;48.518;9.050;2023-02-04T08:31:49;7.57;;;4.40;;
14619;SDS011;32125;48.518;9.050;2023-02-04T08:34:16;9.77;;;4.57;;
14619;SDS011;32125;48.518;9.050;2023-02-04T08:36:41;12.47;;;5.07;;
14619;SDS011;32125;48.518;9.050;2023-02-04T08:39:08;9.40;;;5.50;;
14619;SDS011;32125;48.518;9.050;2023-02-04T08:41:37;6.90;;;4.50;;
14619;SDS011;32125;48.518;9.050;2023-02-04T08:44:02;10.23;;;5.27;;
14619;SDS011;32125;48.518;9.050;2023-02-04T08:46:28;13.03;;;5.00;;
14619;SDS011;32125;48.518;9.050;2023-02-04T08:48:54;10.00;;;4.70;;
14619;SDS011;32125;48.518;9.050;2023-02-04T08:51:21;14.27;;;5.07;;
14619;SDS011;32125;48.518;9.050;2023-02-04T08:53:46;10.23;;;4.80;;
14619;SDS011;32125;48.518;9.050;2023-02-04T08:56:12;12.43;;;5.20;;
14619;SDS011;32125;48.518;9.050;2023-02-04T08:58:44;10.13;;;4.37;;
14619;SDS011;32125;48.518;9.050;2023-02-04T09:01:11;11.10;;;4.70;;
14619;SDS011;32125;48.518;9.050;2023-02-04T09:03:37;12.67;;;4.90;;
14619;SDS011;32125;48.518;9.050;2023-02-04T09:06:04;11.23;;;4.70;;
14619;SDS011;32125;48.518;9.050;2023-02-04T09:08:30;11.47;;;4.20;;
14619;SDS011;32125;48.518;9.050;2023-02-04T09:10:56;12.63;;;4.43;;
14619;SDS011;32125;48.518;9.050;2023-02-04T09:13:22;13.50;;;4.50;;
14619;SDS011;32125;48.518;9.050;2023-02-04T09:15:48;10.13;;;3.77;;
14619;SDS011;32125;48.518;9.050;2023-02-04T09:18:16;12.03;;;4.07;;
14619;SDS011;32125;48.518;9.050;2023-02-04T09:20:48;10.10;;;3.63;;
14619;SDS011;32125;48.518;9.050;2023-02-04T09:23:14;11.40;;;4.37;;
14619;SDS011;32125;48.518;9.050;2023-02-04T09:25:41;11.87;;;4.00;;
14619;SDS011;32125;48.518;9.050;2023-02-04T09:28:09;14.23;;;4.20;;
14619;SDS011;32125;48.518;9.050;2023-02-04T09:30:38;10.23;;;3.97;;
14619;SDS011;32125;48.518;9.050;2023-02-04T09:33:05;12.53;;;4.30;;
14619;SDS011;32125;48.518;9.050;2023-02-04T09:35:31;11.87;;;4.13;;
14619;SDS011;32125;48.518;9.050;2023-02-04T09:37:58;14.23;;;4.10;;
14619;SDS011;32125;48.518;9.050;2023-02-04T09:40:25;10.37;;;3.53;;
14619;SDS011;32125;48.518;9.050;2023-02-04T09:42:52;13.70;;;4.30;;
14619;SDS011;32125;48.518;9.050;2023-02-04T09:45:23;13.77;;;3.93;;
14619;SDS011;32125;48.518;9.050;2023-02-04T09:47:53;13.07;;;3.80;;
14619;SDS011;32125;48.518;9.050;2023-02-04T09:50:22;11.53;;;3.80;;
14619;SDS011;32125;48.518;9.050;2023-02-04T09:52:50;10.20;;;3.10;;
14619;SDS011;32125;48.518;9.050;2023-02-04T09:55:19;9.77;;;3.60;;
14619;SDS011;32125;48.518;9.050;2023-02-04T09:57:46;9.73;;;2.93;;
14619;SDS011;32125;48.518;9.050;2023-02-04T10:00:16;13.10;;;3.20;;
14619;SDS011;32125;48.518;9.050;2023-02-04T10:02:44;8.03;;;2.80;;
14619;SDS011;32125;48.518;9.050;2023-02-04T10:05:29;6.47;;;2.87;;
14619;SDS011;32125;48.518;9.050;2023-02-04T10:07:55;7.37;;;2.77;;
14619;SDS011;32125;48.518;9.050;2023-02-04T10:10:22;10.30;;;3.20;;
14619;SDS011;32125;48.518;9.050;2023-02-04T10:12:52;8.33;;;2.80;;
14619;SDS011;32125;48.518;9.050;2023-02-04T10:15:21;8.80;;;2.37;;
14619;SDS011;32125;48.518;9.050;2023-02-04T10:17:55;7.37;;;2.50;;
14619;SDS011;32125;48.518;9.050;2023-02-04T10:20:25;8.33;;;2.80;;
14619;SDS011;32125;48.518;9.050;2023-02-04T10:22:52;9.87;;;2.67;;
14619;SDS011;32125;48.518;9.050;2023-02-04T10:25:21;10.90;;;2.70;;
14619;SDS011;32125;48.518;9.050;2023-02-04T10:27:51;6.47;;;2.43;;
14619;SDS011;32125;48.518;9.050;2023-02-04T10:32:49;7.03;;;2.37;;
14619;SDS011;32125;48.518;9.050;2023-02-04T10:35:15;9.90;;;2.87;;
14619;SDS011;32125;48.518;9.050;2023-02-04T10:37:45;6.80;;;2.17;;
14619;SDS011;32125;48.518;9.050;2023-02-04T10:40:35;5.13;;;2.20;;
14619;SDS011;32125;48.518;9.050;2023-02-04T10:45:56;7.90;;;2.03;;
14619;SDS011;32125;48.518;9.050;2023-02-04T10:48:25;7.07;;;2.03;;
14619;SDS011;32125;48.518;9.050;2023-02-04T10:50:51;5.90;;;1.90;;
14619;SDS011;32125;48.518;9.050;2023-02-04T10:53:19;6.40;;;2.23;;
14619;SDS011;32125;48.518;9.050;2023-02-04T10:56:08;6.95;;;2.05;;
14619;SDS011;32125;48.518;9.050;2023-02-04T10:58:41;7.95;;;2.20;;
14619;SDS011;32125;48.518;9.050;2023-02-04T11:01:11;5.25;;;1.90;;
14619;SDS011;32125;48.518;9.050;2023-02-04T11:03:38;6.25;;;2.00;;
14619;SDS011;32125;48.518;9.050;2023-02-04T11:06:11;5.63;;;1.90;;
14619;SDS011;32125;48.518;9.050;2023-02-04T11:08:41;6.70;;;2.58;;
14619;SDS011;32125;48.518;9.050;2023-02-04T11:11:08;7.07;;;2.40;;
14619;SDS011;32125;48.518;9.050;2023-02-04T11:16:09;6.22;;;2.00;;
14619;SDS011;32125;48.518;9.050;2023-02-04T11:18:49;6.53;;;2.10;;
14619;SDS011;32125;48.518;9.050;2023-02-04T11:21:40;6.40;;;2.00;;
14619;SDS011;32125;48.518;9.050;2023-02-04T11:26:34;7.70;;;2.33;;
14619;SDS011;32125;48.518;9.050;2023-02-04T11:36:49;7.57;;;2.57;;
14619;SDS011;32125;48.518;9.050;2023-02-04T11:39:15;6.53;;;1.97;;
14619;SDS011;32125;48.518;9.050;2023-02-04T11:41:44;7.67;;;2.40;;
14619;SDS011;32125;48.518;9.050;2023-02-04T11:44:13;8.53;;;2.37;;
14619;SDS011;32125;48.518;9.050;2023-02-04T11:46:44;9.77;;;2.27;;
14619;SDS011;32125;48.518;9.050;2023-02-04T11:49:18;5.83;;;2.00;;
14619;SDS011;32125;48.518;9.050;2023-02-04T11:51:44;12.87;;;2.30;;
14619;SDS011;32125;48.518;9.050;2023-02-04T11:54:14;9.07;;;2.27;;
14619;SDS011;32125;48.518;9.050;2023-02-04T11:56:45;8.33;;;2.40;;
14619;SDS011;32125;48.518;9.050;2023-02-04T11:59:11;10.00;;;2.37;;
14619;SDS011;32125;48.518;9.050;2023-02-04T12:01:38;6.80;;;2.20;;
14619;SDS011;32125;48.518;9.050;2023-02-04T12:04:05;7.50;;;2.20;;
14619;SDS011;32125;48.518;9.050;2023-02-04T12:06:32;7.70;;;2.33;;
14619;SDS011;32125;48.518;9.050;2023-02-04T12:09:06;8.97;;;2.30;;
14619;SDS011;32125;48.518;9.050;2023-02-04T12:11:35;7.77;;;2.30;;
14619;SDS011;32125;48.518;9.050;2023-02-04T12:14:07;7.50;;;2.03;;
14619;SDS011;32125;48.518;9.050;2023-02-04T12:16:43;11.20;;;2.47;;
14619;SDS011;32125;48.518;9.050;2023-02-04T12:19:13;6.70;;;2.23;;
14619;SDS011;32125;48.518;9.050;2023-02-04T12:21:39;6.63;;;2.00;;
14619;SDS011;32125;48.518;9.050;2023-02-04T12:24:05;8.50;;;2.50;;
14619;SDS011;32125;48.518;9.050;2023-02-04T12:26:33;8.03;;;2.60;;
14619;SDS011;32125;48.518;9.050;2023-02-04T12:28:59;7.43;;;2.08;;
14619;SDS011;32125;48.518;9.050;2023-02-04T12:31:27;6.72;;;1.90;;
14619;SDS011;32125;48.518;9.050;2023-02-04T12:33:54;5.20;;;1.80;;
14619;SDS011;32125;48.518;9.050;2023-02-04T12:36:20;10.13;;;2.53;;
14619;SDS011;32125;48.518;9.050;2023-02-04T12:38:46;6.23;;;2.30;;
14619;SDS011;32125;48.518;9.050;2023-02-04T12:41:12;6.30;;;2.50;;
14619;SDS011;32125;48.518;9.050;2023-02-04T12:43:40;7.43;;;1.93;;
14619;SDS011;32125;48.518;9.050;2023-02-04T12:46:06;6.77;;;2.27;;
14619;SDS011;32125;48.518;9.050;2023-02-04T12:48:32;7.03;;;2.20;;
14619;SDS011;32125;48.518;9.050;2023-02-04T12:51:01;8.83;;;2.40;;
14619;SDS011;32125;48.518;9.050;2023-02-04T12:53:27;7.23;;;2.20;;
14619;SDS011;32125;48.518;9.050;2023-02-04T12:55:55;10.07;;;2.80;;
14619;SDS011;32125;48.518;9.050;2023-02-04T12:58:21;7.87;;;2.53;;
14619;SDS011;32125;48.518;9.050;2023-02-04T13:00:47;7.73;;;2.40;;
14619;SDS011;32125;48.518;9.050;2023-02-04T13:03:13;6.70;;;2.23;;
14619;SDS011;32125;48.518;9.050;2023-02-04T13:05:43;11.70;;;2.50;;
14619;SDS011;32125;48.518;9.050;2023-02-04T13:08:09;7.07;;;2.47;;
14619;SDS011;32125;48.518;9.050;2023-02-04T13:10:35;8.77;;;2.50;;
14619;SDS011;32125;48.518;9.050;2023-02-04T13:13:01;6.80;;;2.30;;
14619;SDS011;32125;48.518;9.050;2023-02-04T13:15:27;10.63;;;2.40;;
14619;SDS011;32125;48.518;9.050;2023-02-04T13:17:53;6.40;;;2.50;;
14619;SDS011;32125;48.518;9.050;2023-02-04T13:20:22;15.87;;;3.03;;
14619;SDS011;32125;48.518;9.050;2023-02-04T13:22:48;7.97;;;2.27;;
14619;SDS011;32125;48.518;9.050;2023-02-04T13:25:16;8.97;;;2.73;;
14619;SDS011;32125;48.518;9.050;2023-02-04T13:27:44;7.40;;;2.60;;
14619;SDS011;32125;48.518;9.050;2023-02-04T13:30:10;8.50;;;2.20;;
14619;SDS011;32125;48.518;9.050;2023-02-04T13:32:37;9.27;;;2.87;;
14619;SDS011;32125;48.518;9.050;2023-02-04T13:35:04;8.30;;;2.23;;
14619;SDS011;32125;48.518;9.050;2023-02-04T13:37:30;9.17;;;2.33;;
14619;SDS011;32125;48.518;9.050;2023-02-04T13:39:56;12.63;;;2.67;;
14619;SDS011;32125;48.518;9.050;2023-02-04T13:42:22;10.00;;;2.57;;
14619;SDS011;32125;48.518;9.050;2023-02-04T13:44:48;8.17;;;2.60;;
14619;SDS011;32125;48.518;9.050;2023-02-04T13:47:14;10.40;;;2.80;;
14619;SDS011;32125;48.518;9.050;2023-02-04T13:49:40;8.70;;;2.33;;
14619;SDS011;32125;48.518;9.050;2023-02-04T13:52:06;8.37;;;2.40;;
14619;SDS011;32125;48.518;9.050;2023-02-04T13:54:33;10.90;;;2.43;;
14619;SDS011;32125;48.518;9.050;2023-02-04T13:56:59;12.00;;;2.93;;
14619;SDS011;32125;48.518;9.050;2023-02-04T13:59:27;9.73;;;2.43;;
14619;SDS011;32125;48.518;9.050;2023-02-04T14:01:56;7.93;;;2.30;;
14619;SDS011;32125;48.518;9.050;2023-02-04T14:04:21;9.37;;;2.30;;
14619;SDS011;32125;48.518;9.050;2023-02-04T14:06:50;6.87;;;2.10;;
14619;SDS011;32125;48.518;9.050;2023-02-04T14:09:20;10.73;;;2.60;;
14619;SDS011;32125;48.518;9.050;2023-02-04T14:11:46;10.77;;;2.50;;
14619;SDS011;32125;48.518;9.050;2023-02-04T14:14:12;8.63;;;2.37;;
14619;SDS011;32125;48.518;9.050;2023-02-04T14:16:39;5.90;;;2.27;;
14619;SDS011;32125;48.518;9.050;2023-02-04T14:19:05;11.63;;;2.63;;
14619;SDS011;32125;48.518;9.050;2023-02-04T14:21:31;6.20;;;2.00;;
14619;SDS011;32125;48.518;9.050;2023-02-04T14:23:57;8.67;;;2.20;;
14619;SDS011;32125;48.518;9.050;2023-02-04T14:26:23;8.00;;;2.17;;
14619;SDS011;32125;48.518;9.050;2023-02-04T14:28:49;6.73;;;1.90;;
14619;SDS011;32125;48.518;9.050;2023-02-04T14:31:15;6.43;;;2.13;;
14619;SDS011;32125;48.518;9.050;2023-02-04T14:33:42;5.50;;;1.87;;
14619;SDS011;32125;48.518;9.050;2023-02-04T14:36:30;6.07;;;1.67;;
14619;SDS011;32125;48.518;9.050;2023-02-04T14:38:56;7.07;;;1.80;;
14619;SDS011;32125;48.518;9.050;2023-02-04T14:41:23;7.80;;;1.90;;
14619;SDS011;32125;48.518;9.050;2023-02-04T14:43:50;8.57;;;2.50;;
14619;SDS011;32125;48.518;9.050;2023-02-04T14:46:17;7.40;;;2.50;;
14619;SDS011;32125;48.518;9.050;2023-02-04T14:48:57;7.33;;;2.40;;
14619;SDS011;32125;48.518;9.050;2023-02-04T14:51:23;8.60;;;2.60;;
14619;SDS011;32125;48.518;9.050;2023-02-04T14:53:49;4.53;;;2.00;;
14619;SDS011;32125;48.518;9.050;2023-02-04T14:56:15;8.67;;;2.70;;
14619;SDS011;32125;48.518;9.050;2023-02-04T14:58:41;6.60;;;2.00;;
14619;SDS011;32125;48.518;9.050;2023-02-04T15:01:07;6.60;;;1.97;;
14619;SDS011;32125;48.518;9.050;2023-02-04T15:03:33;7.03;;;2.10;;
14619;SDS011;32125;48.518;9.050;2023-02-04T15:05:59;6.07;;;2.00;;
14619;SDS011;32125;48.518;9.050;2023-02-04T15:08:24;4.10;;;1.70;;
14619;SDS011;32125;48.518;9.050;2023-02-04T15:10:50;7.60;;;2.10;;